Time;durP1;ratioP1;P1;durP2;ratioP2;P2;SDS_P1;SDS_P2;PMS_P1;PMS_P2;Temp;Humidity;BMP_temperature;BMP_pressure;BME280_temperature;BME280_humidity;BME280_pressure;Samples;Min_cycle;Max_cycle;Signal;HPM_P1;HPM_P2
2022/11/19 00:01:35;;;;;;;4.05;1.30;;;7.60;99.90;;;;;;5033539;28;20065;-83
2022/11/19 00:04:01;;;;;;;3.80;0.98;;;7.60;99.90;;;;;;5034380;28;20038;-83
2022/11/19 00:06:27;;;;;;;3.20;1.10;;;7.60;99.90;;;;;;5029101;28;20071;-82
2022/11/19 00:08:53;;;;;;;6.10;1.27;;;7.60;99.90;;;;;;5033596;28;20036;-81
2022/11/19 00:14:12;;;;;;;2.63;0.90;;;7.60;99.90;;;;;;5035621;28;20427;-84
2022/11/19 00:16:37;;;;;;;3.50;1.50;;;7.60;99.90;;;;;;5034907;28;20065;-84
2022/11/19 00:19:03;;;;;;;7.00;1.27;;;7.70;99.90;;;;;;5033875;28;20079;-84
2022/11/19 00:21:32;;;;;;;5.47;1.30;;;7.70;99.90;;;;;;5037009;28;20052;-84
2022/11/19 00:23:58;;;;;;;3.97;0.98;;;7.70;99.90;;;;;;5033468;28;20363;-84
2022/11/19 00:26:24;;;;;;;6.03;1.35;;;7.70;99.90;;;;;;5032882;28;20022;-82
2022/11/19 00:28:50;;;;;;;3.90;0.98;;;7.70;99.90;;;;;;5032901;28;20478;-81
2022/11/19 00:31:16;;;;;;;6.82;1.35;;;7.70;99.90;;;;;;5030471;28;20036;-81
2022/11/19 00:33:44;;;;;;;5.45;1.40;;;7.70;99.90;;;;;;5036948;28;20029;-81
2022/11/19 00:36:13;;;;;;;3.30;0.88;;;7.70;99.90;;;;;;5033768;28;20030;-80
2022/11/19 00:38:38;;;;;;;3.22;0.90;;;7.70;99.90;;;;;;5030601;28;20032;-82
2022/11/19 00:41:05;;;;;;;4.00;0.90;;;7.70;99.90;;;;;;5037270;28;20017;-82
2022/11/19 00:43:49;;;;;;;3.90;0.90;;;7.70;99.90;;;;;;5034524;28;20132;-82
2022/11/19 00:46:18;;;;;;;2.42;0.88;;;7.70;99.90;;;;;;5030856;28;20105;-82
2022/11/19 00:48:48;;;;;;;2.55;1.00;;;7.70;99.90;;;;;;5036971;28;20025;-82
2022/11/19 00:51:14;;;;;;;2.85;0.93;;;7.70;99.90;;;;;;5034017;28;20047;-82
2022/11/19 00:53:43;;;;;;;2.95;0.85;;;7.70;99.90;;;;;;5036362;28;20035;-82
2022/11/19 00:56:12;;;;;;;4.43;0.80;;;7.70;99.90;;;;;;5037330;28;20033;-82
2022/11/19 00:58:38;;;;;;;2.20;1.05;;;7.70;99.90;;;;;;5046332;28;20030;-81
2022/11/19 01:01:07;;;;;;;1.98;0.90;;;7.70;99.90;;;;;;5036933;28;20033;-82
2022/11/19 01:03:33;;;;;;;1.50;0.80;;;7.70;99.90;;;;;;5031747;28;20398;-81
2022/11/19 01:05:59;;;;;;;2.65;0.90;;;7.70;99.90;;;;;;5034687;28;20049;-81
2022/11/19 01:08:31;;;;;;;1.88;0.60;;;7.60;99.90;;;;;;5032715;28;20025;-80
2022/11/19 01:11:05;;;;;;;2.55;0.70;;;7.70;99.90;;;;;;5029484;28;20021;-83
2022/11/19 01:13:33;;;;;;;3.63;0.70;;;7.60;99.90;;;;;;5029802;28;20026;-83
2022/11/19 01:16:00;;;;;;;8.65;0.93;;;7.60;99.90;;;;;;5031511;28;20026;-83
2022/11/19 01:18:27;;;;;;;1.85;0.77;;;7.60;99.90;;;;;;5033883;28;20037;-83
2022/11/19 01:20:55;;;;;;;3.72;0.90;;;7.60;99.90;;;;;;5040192;28;20036;-83
2022/11/19 01:23:21;;;;;;;1.58;0.77;;;7.60;99.90;;;;;;5035039;28;20365;-82
2022/11/19 01:25:47;;;;;;;1.65;0.80;;;7.60;99.90;;;;;;5027368;28;20056;-83
2022/11/19 01:28:12;;;;;;;2.95;0.90;;;7.60;99.90;;;;;;5032392;28;20060;-82
2022/11/19 01:30:40;;;;;;;2.28;0.70;;;7.60;99.90;;;;;;5029643;28;20047;-84
2022/11/19 01:33:06;;;;;;;0.88;0.60;;;7.60;99.90;;;;;;5028286;28;20026;-82
2022/11/19 01:35:33;;;;;;;3.08;0.50;;;7.60;99.90;;;;;;5030146;28;20036;-83
2022/11/19 01:38:05;;;;;;;2.92;0.77;;;7.60;99.90;;;;;;5030159;28;20048;-83
2022/11/19 01:40:32;;;;;;;1.30;0.70;;;7.60;99.90;;;;;;5033072;28;20017;-84
2022/11/19 01:42:58;;;;;;;2.13;0.60;;;7.60;99.90;;;;;;5024271;28;20041;-83
2022/11/19 01:45:48;;;;;;;1.20;0.70;;;7.60;99.90;;;;;;5031813;28;20029;-83
2022/11/19 01:48:28;;;;;;;3.50;0.80;;;7.60;99.90;;;;;;5031392;28;20057;-81
2022/11/19 01:51:01;;;;;;;4.40;1.13;;;7.60;99.90;;;;;;5030618;28;20510;-81
2022/11/19 01:53:35;;;;;;;3.53;0.80;;;7.60;99.90;;;;;;5027825;28;20026;-82
2022/11/19 01:56:03;;;;;;;4.40;1.48;;;7.50;99.90;;;;;;5030532;28;20104;-81
2022/11/19 01:58:46;;;;;;;2.88;1.35;;;7.50;99.90;;;;;;5040583;23;20057;-78
2022/11/19 02:01:13;;;;;;;5.43;1.90;;;7.50;99.90;;;;;;5024081;28;20146;-77
2022/11/19 02:03:42;;;;;;;4.28;1.58;;;7.50;99.90;;;;;;5029299;28;20021;-77
2022/11/19 02:06:12;;;;;;;3.80;1.27;;;7.50;99.90;;;;;;5023897;28;20470;-75
2022/11/19 02:08:46;;;;;;;2.63;1.65;;;7.50;99.90;;;;;;5020012;28;20049;-77
2022/11/19 02:11:45;;;;;;;5.00;1.50;;;7.50;99.90;;;;;;5022991;28;20022;-77
2022/11/19 02:14:32;;;;;;;3.30;1.48;;;7.50;99.90;;;;;;5025197;28;20025;-78
2022/11/19 02:17:23;;;;;;;3.60;1.00;;;7.50;99.90;;;;;;5027601;28;20032;-78
2022/11/19 02:20:14;;;;;;;4.20;1.27;;;7.50;99.90;;;;;;5024990;28;20116;-77
2022/11/19 02:23:07;;;;;;;2.10;0.90;;;7.50;99.90;;;;;;5022009;28;20029;-76
2022/11/19 02:26:11;;;;;;;3.55;1.13;;;7.50;99.90;;;;;;5027370;28;20029;-78
2022/11/19 02:29:01;;;;;;;2.97;0.90;;;7.50;99.90;;;;;;5023588;28;20032;-75
2022/11/19 02:32:04;;;;;;;4.63;1.45;;;7.50;99.90;;;;;;5021673;28;20051;-77
2022/11/19 02:34:45;;;;;;;3.25;1.27;;;7.60;99.90;;;;;;5025728;28;20026;-78
2022/11/19 02:37:47;;;;;;;2.38;1.15;;;7.50;99.90;;;;;;5025065;28;20068;-78
2022/11/19 02:40:35;;;;;;;2.92;1.48;;;7.50;99.90;;;;;;5022205;28;20053;-77
2022/11/19 02:43:07;;;;;;;3.03;1.23;;;7.50;99.90;;;;;;5020340;28;20037;-79
2022/11/19 02:45:58;;;;;;;4.78;1.98;;;7.50;99.90;;;;;;5027353;28;20026;-80
2022/11/19 02:48:29;;;;;;;4.20;1.20;;;7.50;99.90;;;;;;5026649;28;20064;-80
2022/11/19 02:50:58;;;;;;;3.67;1.08;;;7.40;99.90;;;;;;5026387;28;20032;-79
2022/11/19 02:53:28;;;;;;;2.15;0.90;;;7.40;99.90;;;;;;5026920;28;20022;-78
2022/11/19 02:56:16;;;;;;;3.25;0.75;;;7.40;99.90;;;;;;5031605;28;20053;-79
2022/11/19 03:04:44;;;;;;;4.20;1.00;;;7.50;99.90;;;;;;5032128;28;20351;-79
2022/11/19 03:07:15;;;;;;;1.05;0.45;;;7.40;99.90;;;;;;5028735;28;20029;-79
2022/11/19 03:09:53;;;;;;;1.10;0.68;;;7.40;99.90;;;;;;5031521;28;20433;-79
2022/11/19 03:12:48;;;;;;;1.40;0.55;;;7.40;99.90;;;;;;5032479;28;20025;-79
2022/11/19 03:18:50;;;;;;;1.13;0.40;;;7.50;99.90;;;;;;4993139;28;20045;-80
2022/11/19 03:21:38;;;;;;;2.30;0.50;;;7.40;99.90;;;;;;5035311;28;20501;-79
2022/11/19 03:24:11;;;;;;;0.88;0.60;;;7.40;99.90;;;;;;5032454;28;20104;-79
2022/11/19 03:26:47;;;;;;;2.05;0.50;;;7.40;99.90;;;;;;5033706;28;20226;-79
2022/11/19 03:29:14;;;;;;;0.77;0.52;;;7.40;99.90;;;;;;5034501;28;20029;-79
2022/11/19 03:31:53;;;;;;;1.60;0.60;;;7.40;99.90;;;;;;5037160;28;20292;-79
2022/11/19 03:34:30;;;;;;;0.82;0.30;;;7.40;99.90;;;;;;5033594;28;20025;-79
2022/11/19 03:37:04;;;;;;;2.15;0.60;;;7.40;99.90;;;;;;5032622;28;20037;-79
2022/11/19 03:39:33;;;;;;;2.17;0.70;;;7.50;99.90;;;;;;5032525;28;20069;-79
2022/11/19 03:42:08;;;;;;;2.97;0.50;;;7.50;99.90;;;;;;5033650;28;20049;-76
2022/11/19 03:44:46;;;;;;;1.58;0.70;;;7.40;99.90;;;;;;5033015;28;20025;-79
2022/11/19 03:47:25;;;;;;;5.50;0.50;;;7.50;99.90;;;;;;5032646;28;20030;-79
2022/11/19 03:50:17;;;;;;;6.43;0.85;;;7.40;99.90;;;;;;5035732;28;20029;-78
2022/11/19 03:52:49;;;;;;;1.48;0.60;;;7.50;99.90;;;;;;5031570;28;20028;-77
2022/11/19 03:55:20;;;;;;;2.75;0.70;;;7.40;99.90;;;;;;5034608;28;20379;-77
2022/11/19 03:57:49;;;;;;;6.05;0.85;;;7.40;99.90;;;;;;5030133;28;20109;-78
2022/11/19 04:00:18;;;;;;;0.50;0.40;;;7.40;99.90;;;;;;5028912;28;20044;-79
2022/11/19 04:02:44;;;;;;;0.77;0.52;;;7.40;99.90;;;;;;5032654;28;20037;-78
2022/11/19 04:05:09;;;;;;;1.33;0.50;;;7.40;99.90;;;;;;5028180;28;20033;-77
2022/11/19 04:07:35;;;;;;;1.90;0.52;;;7.40;99.90;;;;;;5028006;28;20040;-78
2022/11/19 04:10:07;;;;;;;4.25;0.60;;;7.40;99.90;;;;;;5027938;28;20022;-80
2022/11/19 04:12:33;;;;;;;2.80;0.90;;;7.40;99.90;;;;;;5028611;28;20030;-79
2022/11/19 04:14:58;;;;;;;2.05;0.50;;;7.30;99.90;;;;;;5022678;28;20030;-79
2022/11/19 04:17:24;;;;;;;2.20;0.85;;;7.40;99.90;;;;;;5025159;28;20056;-79
2022/11/19 04:19:53;;;;;;;1.58;0.52;;;7.40;99.90;;;;;;5025821;28;20490;-76
2022/11/19 04:22:24;;;;;;;1.80;1.02;;;7.40;99.90;;;;;;5030037;28;20030;-79
2022/11/19 04:24:52;;;;;;;2.05;0.75;;;7.40;99.90;;;;;;5030606;28;20026;-78
2022/11/19 04:27:18;;;;;;;1.33;0.60;;;7.30;99.90;;;;;;5022187;28;20100;-79
2022/11/19 04:29:44;;;;;;;1.95;0.73;;;7.40;99.90;;;;;;5025954;28;20068;-78
2022/11/19 04:32:09;;;;;;;1.40;0.50;;;7.40;99.90;;;;;;5020785;28;20029;-77
2022/11/19 04:34:35;;;;;;;2.40;0.68;;;7.30;99.90;;;;;;5026403;28;20021;-79
2022/11/19 04:37:06;;;;;;;2.08;0.70;;;7.30;99.90;;;;;;5024795;28;20501;-78
2022/11/19 04:39:47;;;;;;;4.43;0.90;;;7.30;99.90;;;;;;5029436;28;20036;-79
2022/11/19 04:42:12;;;;;;;1.05;0.60;;;7.30;99.90;;;;;;5035065;28;20025;-79
2022/11/19 04:44:38;;;;;;;2.83;0.80;;;7.30;99.90;;;;;;5030470;28;20025;-78
2022/11/19 04:47:04;;;;;;;3.63;1.35;;;7.30;99.90;;;;;;5023283;28;20026;-79
2022/11/19 04:49:30;;;;;;;1.95;0.90;;;7.30;99.90;;;;;;5028501;28;20029;-77
2022/11/19 04:51:55;;;;;;;1.17;0.60;;;7.40;99.90;;;;;;5029209;28;20025;-78
2022/11/19 04:54:21;;;;;;;1.13;0.68;;;7.40;99.90;;;;;;5029260;28;20048;-78
2022/11/19 04:56:46;;;;;;;3.13;1.15;;;7.40;99.90;;;;;;5031536;28;20476;-79
2022/11/19 04:59:12;;;;;;;0.90;0.50;;;7.40;99.90;;;;;;5025993;28;20101;-79
2022/11/19 05:01:37;;;;;;;3.20;0.60;;;7.40;99.90;;;;;;5029756;28;20397;-78
2022/11/19 05:04:06;;;;;;;2.00;0.80;;;7.40;99.90;;;;;;5029560;28;20033;-79
2022/11/19 05:06:32;;;;;;;1.50;0.80;;;7.40;99.90;;;;;;5032437;28;20025;-78
2022/11/19 05:09:00;;;;;;;1.83;0.98;;;7.40;99.90;;;;;;5029421;28;20079;-78
2022/11/19 05:11:26;;;;;;;3.22;0.90;;;7.40;99.90;;;;;;5034111;28;20018;-78
2022/11/19 05:13:52;;;;;;;0.95;0.70;;;7.40;99.90;;;;;;5025439;28;20052;-77
2022/11/19 05:16:18;;;;;;;2.72;0.80;;;7.40;99.90;;;;;;5032367;28;20095;-78
2022/11/19 05:18:44;;;;;;;2.25;1.00;;;7.40;99.90;;;;;;5028117;28;20025;-78
2022/11/19 05:21:15;;;;;;;1.58;1.00;;;7.40;99.90;;;;;;5029354;28;20029;-79
2022/11/19 05:23:41;;;;;;;1.45;0.82;;;7.40;99.90;;;;;;5036074;28;20045;-78
2022/11/19 05:26:07;;;;;;;2.30;0.70;;;7.40;99.90;;;;;;5055253;28;20030;-78
2022/11/19 05:28:35;;;;;;;1.58;0.50;;;7.40;99.90;;;;;;5027023;28;20067;-78
2022/11/19 05:31:07;;;;;;;2.15;0.47;;;7.40;99.90;;;;;;5030815;28;20022;-78
2022/11/19 05:33:33;;;;;;;1.23;0.70;;;7.40;99.90;;;;;;5024861;28;20022;-79
2022/11/19 05:35:58;;;;;;;0.90;0.50;;;7.40;99.90;;;;;;5025585;28;20022;-79
2022/11/19 05:38:30;;;;;;;2.85;0.80;;;7.40;99.90;;;;;;5026376;28;20036;-78
2022/11/19 05:41:01;;;;;;;2.88;1.13;;;7.40;99.90;;;;;;5030645;28;20084;-79
2022/11/19 05:43:27;;;;;;;2.85;0.98;;;7.40;99.90;;;;;;5025348;28;20053;-77
2022/11/19 05:45:53;;;;;;;4.38;1.25;;;7.30;99.90;;;;;;5029585;28;20028;-79
2022/11/19 05:48:18;;;;;;;2.47;0.95;;;7.30;99.90;;;;;;5031747;28;20121;-79
2022/11/19 05:50:47;;;;;;;2.88;0.90;;;7.20;99.90;;;;;;5031011;28;20034;-79
2022/11/19 05:53:12;;;;;;;2.72;1.08;;;7.20;99.90;;;;;;5029287;28;20022;-77
2022/11/19 05:55:38;;;;;;;2.95;0.85;;;7.20;99.90;;;;;;5024586;28;20036;-78
2022/11/19 05:58:04;;;;;;;2.60;1.17;;;7.20;99.90;;;;;;5026492;28;20248;-76
2022/11/19 06:00:29;;;;;;;2.47;1.35;;;7.20;99.90;;;;;;5022796;28;20033;-80
2022/11/19 06:02:58;;;;;;;1.77;0.90;;;7.20;99.90;;;;;;5027085;28;20029;-78
2022/11/19 06:05:24;;;;;;;2.17;1.15;;;7.20;99.90;;;;;;5023047;28;20026;-77
2022/11/19 06:07:56;;;;;;;5.55;1.25;;;7.20;99.90;;;;;;5024301;28;20033;-76
2022/11/19 06:10:22;;;;;;;2.75;1.13;;;7.20;99.90;;;;;;5026588;28;20083;-79
2022/11/19 06:12:53;;;;;;;1.55;0.88;;;7.20;99.90;;;;;;5025510;28;20353;-76
2022/11/19 06:15:23;;;;;;;2.08;1.05;;;7.20;99.90;;;;;;5020717;28;20116;-77
2022/11/19 06:17:49;;;;;;;2.05;1.08;;;7.20;99.90;;;;;;5027386;28;20033;-75
2022/11/19 06:20:14;;;;;;;1.85;1.05;;;7.20;99.90;;;;;;5028774;28;20032;-76
2022/11/19 06:22:43;;;;;;;2.05;1.20;;;7.20;99.90;;;;;;5024390;28;20221;-76
2022/11/19 06:25:15;;;;;;;3.25;1.70;;;7.20;99.90;;;;;;5025744;28;20041;-76
2022/11/19 06:27:43;;;;;;;1.95;1.10;;;7.20;99.90;;;;;;5025224;28;20432;-76
2022/11/19 06:30:13;;;;;;;2.72;1.20;;;7.20;99.90;;;;;;5020520;28;20047;-77
2022/11/19 06:32:44;;;;;;;3.63;1.08;;;7.20;99.90;;;;;;5022212;28;20085;-76
2022/11/19 06:35:19;;;;;;;4.10;1.20;;;7.20;99.90;;;;;;5028253;28;20037;-76
2022/11/19 06:37:48;;;;;;;2.60;1.05;;;7.20;99.90;;;;;;5025203;28;20036;-76
2022/11/19 06:40:13;;;;;;;2.42;0.88;;;7.20;99.90;;;;;;5019874;28;20504;-73
2022/11/19 06:42:39;;;;;;;1.13;0.68;;;7.20;99.90;;;;;;5024787;28;20112;-76
2022/11/19 06:45:11;;;;;;;1.58;0.80;;;7.20;99.90;;;;;;5024530;28;20029;-74
2022/11/19 06:47:38;;;;;;;1.40;0.90;;;7.20;99.90;;;;;;5031155;28;20036;-78
2022/11/19 06:50:08;;;;;;;2.75;0.90;;;7.20;99.90;;;;;;5029967;28;20025;-77
2022/11/19 06:52:36;;;;;;;3.47;0.90;;;7.20;99.90;;;;;;5026832;28;20024;-76
2022/11/19 06:55:03;;;;;;;0.88;0.70;;;7.20;99.90;;;;;;5023590;28;20029;-74
2022/11/19 06:57:28;;;;;;;2.03;0.85;;;7.20;99.90;;;;;;5026806;28;20049;-72
2022/11/19 07:00:06;;;;;;;3.58;1.45;;;7.20;99.90;;;;;;5020043;28;20053;-77
2022/11/19 07:02:38;;;;;;;2.50;0.80;;;7.20;99.90;;;;;;5025071;28;20089;-78
2022/11/19 07:05:04;;;;;;;3.33;0.70;;;7.20;99.90;;;;;;5022145;28;20021;-76
2022/11/19 07:07:33;;;;;;;5.70;0.80;;;7.30;99.90;;;;;;5027661;28;20029;-74
2022/11/19 07:09:59;;;;;;;4.43;1.30;;;7.30;99.90;;;;;;5027369;28;20061;-78
2022/11/19 07:12:25;;;;;;;1.67;0.77;;;7.30;99.90;;;;;;5028481;28;20032;-78
2022/11/19 07:14:51;;;;;;;1.73;0.70;;;7.40;99.90;;;;;;5022359;28;20022;-78
2022/11/19 07:17:17;;;;;;;4.30;1.42;;;7.40;99.90;;;;;;5026450;28;20025;-76
2022/11/19 07:19:43;;;;;;;4.88;0.90;;;7.40;99.90;;;;;;5029529;28;20433;-79
2022/11/19 07:22:14;;;;;;;1.42;0.90;;;7.40;99.90;;;;;;5022914;28;20021;-77
2022/11/19 07:24:40;;;;;;;1.73;0.80;;;7.40;99.90;;;;;;5026043;28;20478;-79
2022/11/19 07:27:05;;;;;;;1.63;0.98;;;7.40;99.90;;;;;;5024673;28;20029;-76
2022/11/19 07:29:34;;;;;;;2.78;1.20;;;7.50;99.90;;;;;;5030173;28;20429;-79
2022/11/19 07:32:00;;;;;;;2.92;1.23;;;7.50;99.90;;;;;;5026325;28;20116;-77
2022/11/19 07:34:35;;;;;;;3.83;1.80;;;7.50;99.90;;;;;;5024000;28;20548;-80
2022/11/19 07:37:03;;;;;;;4.82;2.10;;;7.50;99.90;;;;;;5031301;28;20371;-79
2022/11/19 07:39:32;;;;;;;9.55;2.10;;;7.50;99.90;;;;;;5028169;28;20036;-79
2022/11/19 07:44:45;;;;;;;3.97;1.63;;;7.60;99.90;;;;;;5026264;28;20032;-78
2022/11/19 07:47:14;;;;;;;4.20;1.73;;;7.50;99.90;;;;;;5030219;28;20029;-76
2022/11/19 07:49:39;;;;;;;3.13;2.10;;;7.60;99.90;;;;;;5027860;28;20486;-77
2022/11/19 07:52:05;;;;;;;2.38;1.38;;;7.50;99.90;;;;;;5027904;28;20033;-76
2022/11/19 07:54:37;;;;;;;2.03;1.15;;;7.60;99.90;;;;;;5026564;28;20026;-76
2022/11/19 07:57:02;;;;;;;4.10;1.67;;;7.60;99.90;;;;;;5053779;23;20036;-77
2022/11/19 07:59:37;;;;;;;2.95;1.50;;;7.60;99.90;;;;;;5032085;28;20464;-77
2022/11/19 08:02:03;;;;;;;2.30;1.15;;;7.60;99.90;;;;;;5034194;28;20098;-78
2022/11/19 08:04:28;;;;;;;2.17;1.13;;;7.60;99.90;;;;;;5032956;28;20061;-78
2022/11/19 08:06:54;;;;;;;4.20;1.00;;;7.60;99.90;;;;;;5036218;28;20428;-78
2022/11/19 08:09:20;;;;;;;1.95;0.90;;;7.50;99.90;;;;;;5035893;28;20037;-78
2022/11/19 08:11:51;;;;;;;2.90;1.48;;;7.50;99.90;;;;;;5039753;28;20105;-78
2022/11/19 08:14:17;;;;;;;2.58;0.90;;;7.50;99.90;;;;;;5037670;28;20040;-78
2022/11/19 08:19:32;;;;;;;3.28;1.48;;;7.40;99.90;;;;;;5040552;28;20048;-78
2022/11/19 08:21:58;;;;;;;3.95;1.00;;;7.50;99.90;;;;;;5039227;28;20123;-78
2022/11/19 08:24:24;;;;;;;3.20;1.05;;;7.50;99.90;;;;;;5040253;28;20033;-78
2022/11/19 08:26:50;;;;;;;3.08;1.00;;;7.50;99.90;;;;;;5038353;28;20056;-78
2022/11/19 08:29:18;;;;;;;2.75;1.52;;;7.50;99.90;;;;;;5042035;28;20472;-78
2022/11/19 08:31:45;;;;;;;2.55;1.15;;;7.60;99.90;;;;;;5037494;28;20539;-78
2022/11/19 08:34:11;;;;;;;4.30;1.20;;;7.60;99.90;;;;;;5041051;28;20131;-78
2022/11/19 08:36:37;;;;;;;5.45;1.15;;;7.60;99.90;;;;;;5035922;28;20045;-78
2022/11/19 08:39:05;;;;;;;1.88;0.98;;;7.70;99.90;;;;;;5035718;28;20025;-79
2022/11/19 08:44:28;;;;;;;2.33;1.00;;;7.70;99.90;;;;;;5027080;28;20052;-78
2022/11/19 08:46:53;;;;;;;2.25;1.25;;;7.70;99.90;;;;;;5032870;28;20096;-79
2022/11/19 08:49:25;;;;;;;2.55;1.13;;;7.70;99.90;;;;;;5031442;28;20033;-78
2022/11/19 08:51:51;;;;;;;4.05;1.40;;;7.80;99.90;;;;;;5027411;28;20048;-79
2022/11/19 08:54:17;;;;;;;1.48;0.90;;;7.80;99.90;;;;;;5034983;28;20382;-78
2022/11/19 08:56:49;;;;;;;1.45;1.10;;;7.90;99.90;;;;;;5034953;28;20037;-78
2022/11/19 08:59:14;;;;;;;4.65;1.38;;;7.90;99.90;;;;;;5035355;28;20509;-78
2022/11/19 09:01:40;;;;;;;3.92;1.30;;;7.90;99.90;;;;;;5034309;28;20025;-79
2022/11/19 09:04:15;;;;;;;2.20;1.00;;;8.00;99.90;;;;;;5036448;28;20234;-78
2022/11/19 09:06:41;;;;;;;3.30;0.90;;;8.00;99.90;;;;;;5041612;28;20040;-77
2022/11/19 09:09:16;;;;;;;4.72;1.80;;;8.10;99.90;;;;;;5035207;28;20041;-78
2022/11/19 09:11:45;;;;;;;3.22;1.20;;;8.10;99.90;;;;;;5034746;28;20100;-79
2022/11/19 09:14:10;;;;;;;2.53;0.75;;;8.20;99.90;;;;;;5036334;28;20052;-79
2022/11/19 09:16:48;;;;;;;4.13;1.10;;;8.20;99.90;;;;;;5034991;28;20025;-79
2022/11/19 09:19:14;;;;;;;2.13;0.85;;;8.20;99.90;;;;;;5034695;28;20044;-78
2022/11/19 09:21:39;;;;;;;3.92;0.90;;;8.20;99.90;;;;;;5030997;28;20052;-79
2022/11/19 09:24:08;;;;;;;1.70;0.90;;;8.20;99.90;;;;;;5037729;28;20032;-78
2022/11/19 09:26:34;;;;;;;5.63;1.30;;;8.20;99.90;;;;;;5034254;28;20028;-80
2022/11/19 09:29:01;;;;;;;2.25;0.70;;;8.20;99.90;;;;;;5032528;28;20054;-79
2022/11/19 09:31:30;;;;;;;2.35;0.70;;;8.20;99.90;;;;;;5036485;28;20390;-79
2022/11/19 09:33:55;;;;;;;2.35;1.08;;;8.20;99.90;;;;;;5028685;28;20036;-80
2022/11/19 09:36:30;;;;;;;1.15;0.80;;;8.20;99.90;;;;;;5037257;28;20474;-79
2022/11/19 09:39:02;;;;;;;2.47;0.80;;;8.20;99.90;;;;;;5031867;28;20683;-79
2022/11/19 09:41:46;;;;;;;3.58;0.82;;;8.20;99.90;;;;;;5031173;28;20029;-80
2022/11/19 09:45:06;;;;;;;3.05;1.00;;;8.20;99.90;;;;;;5031815;28;20030;-80
2022/11/19 09:48:08;;;;;;;3.72;0.70;;;8.20;99.90;;;;;;4975661;28;20034;-80
2022/11/19 09:50:49;;;;;;;3.85;1.55;;;8.20;99.90;;;;;;5016251;28;20038;-79
2022/11/19 09:53:20;;;;;;;3.78;1.20;;;8.20;99.90;;;;;;5038788;28;20029;-79
2022/11/19 09:55:52;;;;;;;3.30;1.50;;;8.20;99.90;;;;;;5036523;28;20037;-79
2022/11/19 09:58:30;;;;;;;3.53;1.40;;;8.30;99.90;;;;;;5036798;28;20025;-79
2022/11/19 10:00:59;;;;;;;3.38;1.23;;;8.30;99.90;;;;;;5034329;28;20033;-79
2022/11/19 10:03:26;;;;;;;3.67;0.77;;;8.40;99.90;;;;;;5033960;28;20130;-78
2022/11/19 10:06:27;;;;;;;2.30;1.17;;;8.40;99.90;;;;;;5032464;28;20393;-78
2022/11/19 10:09:01;;;;;;;3.45;0.98;;;8.50;99.90;;;;;;5043945;28;20084;-79
2022/11/19 10:11:42;;;;;;;1.70;0.82;;;8.50;99.90;;;;;;5028886;28;20028;-77
2022/11/19 10:14:29;;;;;;;6.50;0.95;;;8.50;99.90;;;;;;5029223;28;20030;-78
2022/11/19 10:17:36;;;;;;;2.45;0.70;;;8.60;99.90;;;;;;5034969;28;20085;-77
2022/11/19 10:20:07;;;;;;;2.17;1.10;;;8.60;99.90;;;;;;5032099;28;20167;-79
2022/11/19 10:23:01;;;;;;;3.30;0.80;;;8.60;99.90;;;;;;5025990;28;20393;-79
2022/11/19 10:25:47;;;;;;;3.17;1.00;;;8.60;99.90;;;;;;5037911;28;20043;-79
2022/11/19 10:28:16;;;;;;;4.20;1.10;;;8.70;99.90;;;;;;5047208;28;20072;-80
2022/11/19 10:30:51;;;;;;;3.63;1.60;;;8.70;99.90;;;;;;5042469;28;20029;-79
2022/11/19 10:33:45;;;;;;;3.28;1.00;;;8.70;99.90;;;;;;5045823;28;20026;-80
2022/11/19 10:36:51;;;;;;;1.92;0.90;;;8.70;99.90;;;;;;5042367;28;20057;-79
2022/11/19 10:39:40;;;;;;;2.28;0.98;;;8.70;99.90;;;;;;5043541;28;20044;-78
2022/11/19 10:42:28;;;;;;;2.58;1.02;;;8.70;99.90;;;;;;5041396;28;20112;-78
2022/11/19 10:45:15;;;;;;;4.57;1.02;;;8.70;99.90;;;;;;5044818;28;20064;-79
2022/11/19 10:48:02;;;;;;;3.53;1.30;;;8.70;99.90;;;;;;5035719;28;20417;-77
2022/11/19 10:50:28;;;;;;;4.75;1.33;;;8.70;99.90;;;;;;5034854;28;20030;-78
2022/11/19 10:53:03;;;;;;;2.53;1.20;;;8.70;99.90;;;;;;5034219;28;20047;-78
2022/11/19 10:55:47;;;;;;;3.35;1.25;;;8.70;99.90;;;;;;5032338;28;20034;-78
2022/11/19 10:58:20;;;;;;;3.35;1.50;;;8.70;99.90;;;;;;5039931;28;20026;-79
2022/11/19 11:00:46;;;;;;;3.28;1.23;;;8.70;99.90;;;;;;5042502;28;20056;-78
2022/11/19 11:03:47;;;;;;;3.63;1.40;;;8.70;99.90;;;;;;5034767;28;20030;-76
2022/11/19 11:06:12;;;;;;;2.67;1.30;;;8.80;99.90;;;;;;5026697;28;20034;-74
2022/11/19 11:08:51;;;;;;;4.55;1.38;;;8.90;99.90;;;;;;5028444;28;20033;-76
2022/11/19 11:17:25;;;;;;;3.55;1.05;;;9.10;99.90;;;;;;5035263;28;20805;-78
2022/11/19 11:20:20;;;;;;;3.00;1.08;;;9.10;99.90;;;;;;5035218;28;20025;-79
2022/11/19 11:22:49;;;;;;;7.82;1.33;;;9.10;99.90;;;;;;5033251;28;20022;-79
2022/11/19 11:25:20;;;;;;;3.42;0.90;;;9.20;99.90;;;;;;5040010;28;20378;-79
2022/11/19 11:28:20;;;;;;;2.70;1.17;;;9.20;99.90;;;;;;5038511;28;20044;-79
2022/11/19 11:31:08;;;;;;;3.53;1.90;;;9.20;99.90;;;;;;5034500;28;20081;-79
2022/11/19 11:33:38;;;;;;;2.28;1.27;;;9.20;99.90;;;;;;5036854;28;20056;-79
2022/11/19 11:36:30;;;;;;;3.10;1.50;;;9.20;99.90;;;;;;5053409;28;20030;-79
2022/11/19 11:38:58;;;;;;;4.22;1.20;;;9.20;99.90;;;;;;5023688;28;20023;-77
2022/11/19 11:41:42;;;;;;;4.00;0.95;;;9.30;99.90;;;;;;5069446;22;20575;-78
2022/11/19 11:44:26;;;;;;;1.55;0.90;;;9.30;99.90;;;;;;5035006;28;20038;-76
2022/11/19 11:47:02;;;;;;;;;;;9.30;99.90;;;;;;5038020;28;20026;-75
2022/11/19 11:49:48;;;;;;;2.50;1.05;;;9.30;99.90;;;;;;5036352;28;19917;-75
2022/11/19 11:52:24;;;;;;;2.78;0.95;;;9.30;99.90;;;;;;5036671;28;20025;-76
2022/11/19 11:55:11;;;;;;;1.88;0.70;;;9.30;99.90;;;;;;5042006;22;20045;-77
2022/11/19 11:57:56;;;;;;;2.28;0.93;;;9.30;99.90;;;;;;5028627;28;20513;-78
2022/11/19 12:00:34;;;;;;;2.13;0.90;;;9.20;99.90;;;;;;5021406;28;20559;-78
2022/11/19 12:03:09;;;;;;;3.67;1.17;;;9.30;99.90;;;;;;5028477;28;20032;-78
2022/11/19 12:06:06;;;;;;;3.38;0.93;;;9.20;99.90;;;;;;5030986;28;20501;-78
2022/11/19 12:08:50;;;;;;;3.05;1.20;;;9.20;99.90;;;;;;5020908;28;20032;-77
2022/11/19 12:11:53;;;;;;;3.80;1.27;;;9.30;99.90;;;;;;5029049;28;20052;-77
2022/11/19 12:14:50;;;;;;;6.05;0.93;;;9.30;99.90;;;;;;5031607;28;20105;-79
2022/11/19 12:17:53;;;;;;;3.92;1.00;;;9.30;99.90;;;;;;5030350;28;20084;-78
2022/11/19 12:20:27;;;;;;;2.28;0.95;;;9.30;99.90;;;;;;5030471;28;20033;-77
2022/11/19 12:23:11;;;;;;;2.30;1.10;;;9.20;99.90;;;;;;5029381;28;20117;-79
2022/11/19 12:25:52;;;;;;;7.45;1.25;;;9.20;99.90;;;;;;5028292;28;20025;-79
2022/11/19 12:28:39;;;;;;;2.70;1.10;;;9.20;99.90;;;;;;5033789;28;20048;-77
2022/11/19 12:31:47;;;;;;;2.10;0.52;;;9.30;99.90;;;;;;5031908;28;20018;-77
2022/11/19 12:34:21;;;;;;;2.65;1.25;;;9.30;99.90;;;;;;5028888;28;20033;-76
2022/11/19 12:36:56;;;;;;;3.15;1.90;;;9.40;99.90;;;;;;5030394;28;20029;-77
2022/11/19 12:39:40;;;;;;;4.57;1.70;;;9.40;99.90;;;;;;5028558;28;20018;-77
2022/11/19 12:42:33;;;;;;;1.73;0.90;;;9.40;99.90;;;;;;5023865;28;20033;-78
2022/11/19 12:44:59;;;;;;;3.90;0.80;;;9.40;99.90;;;;;;5029055;28;20120;-77
2022/11/19 12:47:56;;;;;;;4.05;0.98;;;9.40;99.90;;;;;;5031009;28;20120;-78
2022/11/19 12:50:54;;;;;;;3.35;0.82;;;9.40;99.90;;;;;;5024958;28;20516;-79
2022/11/19 12:53:41;;;;;;;1.83;0.75;;;9.40;99.90;;;;;;5025501;28;20041;-79
2022/11/19 12:56:42;;;;;;;1.98;0.77;;;9.40;99.90;;;;;;5026366;28;20038;-78
2022/11/19 12:59:17;;;;;;;2.53;0.73;;;9.40;99.90;;;;;;4966816;28;20039;-78
2022/11/19 13:01:51;;;;;;;4.00;1.55;;;9.40;99.90;;;;;;5023289;28;20045;-79
2022/11/19 13:04:26;;;;;;;2.70;1.30;;;9.30;99.90;;;;;;5027354;28;20080;-79
2022/11/19 13:07:03;;;;;;;4.82;1.85;;;9.40;99.90;;;;;;5029653;28;20018;-79
2022/11/19 13:09:37;;;;;;;1.80;1.10;;;9.30;99.90;;;;;;5023298;28;20105;-79
2022/11/19 13:12:26;;;;;;;4.85;2.08;;;9.30;99.90;;;;;;5024007;28;20079;-80
2022/11/19 13:14:56;;;;;;;5.28;1.45;;;9.30;99.90;;;;;;5027165;28;20025;-78
2022/11/19 13:17:43;;;;;;;3.70;1.50;;;9.30;99.90;;;;;;5027063;28;21208;-77
2022/11/19 13:20:27;;;;;;;2.53;1.20;;;9.30;99.90;;;;;;5030336;28;20095;-78
2022/11/19 13:22:58;;;;;;;4.75;1.40;;;9.30;99.90;;;;;;5028151;28;20025;-77
2022/11/19 13:25:33;;;;;;;2.25;1.00;;;9.40;99.90;;;;;;5030884;28;20049;-79
2022/11/19 13:28:05;;;;;;;2.08;1.20;;;9.40;99.90;;;;;;5025761;28;20041;-78
2022/11/19 13:30:40;;;;;;;1.42;0.90;;;9.40;99.90;;;;;;5020646;28;20029;-77
2022/11/19 13:33:21;;;;;;;4.57;1.40;;;9.40;99.90;;;;;;5030177;28;20106;-77
2022/11/19 13:36:02;;;;;;;1.52;0.68;;;9.40;99.90;;;;;;5025016;28;20110;-79
2022/11/19 13:38:43;;;;;;;2.28;1.27;;;9.40;99.90;;;;;;5023618;28;20031;-79
2022/11/19 13:41:19;;;;;;;1.30;0.60;;;9.40;99.90;;;;;;5025194;28;20029;-79
2022/11/19 13:46:53;;;;;;;2.67;1.05;;;9.30;99.90;;;;;;5026321;28;20648;-80
2022/11/19 13:49:25;;;;;;;1.40;0.63;;;9.30;99.90;;;;;;5028750;28;20033;-80
2022/11/19 13:51:59;;;;;;;2.63;0.80;;;9.30;99.90;;;;;;5017276;28;20084;-80
2022/11/19 13:54:34;;;;;;;2.53;0.95;;;9.30;99.90;;;;;;5027274;28;20029;-79
2022/11/19 13:57:01;;;;;;;1.10;0.80;;;9.40;99.90;;;;;;5031145;28;20519;-79
2022/11/19 13:59:44;;;;;;;3.10;0.80;;;9.30;99.90;;;;;;5023173;28;20030;-78
2022/11/19 14:02:29;;;;;;;1.98;0.85;;;9.40;99.90;;;;;;5023420;28;20029;-78